DLH99F EDDF-LEPA
Flight info
| Callsign | DLH99F |
|---|---|
| Flight time | 1h 53m |
| Altitude | 35000 |
| Route | ANEKI2L ANEKI Y163 HERBI Y164 MOPAN DCT LUTIX DCT BENOT DCT NEMOS DCT GEVEA DCT INCUS DCT BALSI DCT RETNO DCT TUPOX DCT MTG DCT DIVKO DCT VATIR DCT PIVUS N852 VERSO L129 LUNIK |
| Aircraft | A320/M-SDE3FGHIRWY/LB1 |
Departure
| Time | 2026-05-05 12:33 |
|---|---|
| Airport | Frankfurt Main Airport (EDDF) |
Arrival
| Time | 2026-05-05 14:26 |
|---|---|
| Airport | Palma de Mallorca Airport (LEPA) |
| Time | Latitude | Longitude | Altitude | Speed | Heading |
|---|---|---|---|---|---|
| 2026-05-05 11:58 | 50.04060 | 8.55648 | 351 ft | 0 kts | 159° |
| 2026-05-05 12:06 | 50.04060 | 8.55647 | 351 ft | 0 kts | 159° |
| 2026-05-05 12:26 | 50.04060 | 8.55648 | 351 ft | 0 kts | 159° |
| 2026-05-05 12:27 | 50.04037 | 8.55662 | 356 ft | 7 kts | 158° |
| 2026-05-05 12:27 | 50.03990 | 8.55665 | 349 ft | 8 kts | 206° |
| 2026-05-05 12:27 | 50.03957 | 8.55561 | 352 ft | 12 kts | 250° |
| 2026-05-05 12:27 | 50.03926 | 8.55433 | 351 ft | 16 kts | 247° |
| 2026-05-05 12:28 | 50.03882 | 8.55255 | 350 ft | 18 kts | 249° |
| 2026-05-05 12:28 | 50.03835 | 8.55064 | 358 ft | 20 kts | 249° |
| 2026-05-05 12:28 | 50.03786 | 8.54857 | 350 ft | 21 kts | 251° |
| 2026-05-05 12:28 | 50.03733 | 8.54636 | 351 ft | 23 kts | 249° |
| 2026-05-05 12:29 | 50.03675 | 8.54395 | 346 ft | 25 kts | 249° |
| 2026-05-05 12:29 | 50.03616 | 8.54141 | 347 ft | 25 kts | 250° |
| 2026-05-05 12:29 | 50.03554 | 8.53882 | 338 ft | 26 kts | 249° |
| 2026-05-05 12:29 | 50.03490 | 8.53616 | 334 ft | 27 kts | 250° |
| 2026-05-05 12:30 | 50.03425 | 8.53343 | 336 ft | 27 kts | 249° |
| 2026-05-05 12:30 | 50.03358 | 8.53068 | 332 ft | 27 kts | 250° |
| 2026-05-05 12:30 | 50.03295 | 8.52804 | 333 ft | 23 kts | 248° |
| 2026-05-05 12:30 | 50.03251 | 8.52619 | 333 ft | 14 kts | 250° |
| 2026-05-05 12:31 | 50.03171 | 8.52595 | 335 ft | 12 kts | 177° |
| 2026-05-05 12:31 | 50.03160 | 8.52596 | 335 ft | 0 kts | 179° |
| 2026-05-05 12:32 | 50.03141 | 8.52596 | 332 ft | 16 kts | 179° |
| 2026-05-05 12:32 | 50.02766 | 8.52600 | 335 ft | 87 kts | 179° |
| 2026-05-05 12:32 | 50.01965 | 8.52611 | 331 ft | 140 kts | 180° |
| 2026-05-05 12:32 | 50.00850 | 8.52617 | 463 ft | 170 kts | 180° |
| 2026-05-05 12:33 | 49.99688 | 8.52643 | 1164 ft | 168 kts | 179° |
| 2026-05-05 12:33 | 49.98502 | 8.52713 | 1713 ft | 177 kts | 178° |
| 2026-05-05 12:33 | 49.97198 | 8.52809 | 1983 ft | 199 kts | 178° |
| 2026-05-05 12:33 | 49.95738 | 8.52921 | 2221 ft | 222 kts | 177° |
| 2026-05-05 12:34 | 49.94156 | 8.53040 | 2875 ft | 229 kts | 177° |
| 2026-05-05 12:34 | 49.92556 | 8.53158 | 3642 ft | 233 kts | 178° |
| 2026-05-05 12:34 | 49.90938 | 8.53275 | 4456 ft | 231 kts | 178° |
| 2026-05-05 12:34 | 49.89334 | 8.53387 | 5295 ft | 231 kts | 178° |
| 2026-05-05 12:35 | 49.87716 | 8.53497 | 6101 ft | 234 kts | 178° |
| 2026-05-05 12:35 | 49.86084 | 8.53608 | 6879 ft | 236 kts | 178° |
| 2026-05-05 12:35 | 49.84436 | 8.53719 | 7619 ft | 238 kts | 178° |
| 2026-05-05 12:35 | 49.82772 | 8.53831 | 8365 ft | 241 kts | 178° |
| 2026-05-05 12:36 | 49.81090 | 8.53946 | 9129 ft | 243 kts | 178° |
| 2026-05-05 12:36 | 49.79393 | 8.54062 | 9888 ft | 246 kts | 178° |
| 2026-05-05 12:36 | 49.77675 | 8.54093 | 10540 ft | 251 kts | 184° |
| 2026-05-05 12:36 | 49.75855 | 8.53861 | 10809 ft | 274 kts | 185° |
| 2026-05-05 12:37 | 49.73874 | 8.53594 | 11019 ft | 297 kts | 185° |
| 2026-05-05 12:37 | 49.71737 | 8.53300 | 11184 ft | 321 kts | 185° |
| 2026-05-05 12:37 | 49.69447 | 8.52987 | 11494 ft | 336 kts | 185° |
| 2026-05-05 12:37 | 49.67090 | 8.52674 | 12095 ft | 342 kts | 185° |
| 2026-05-05 12:38 | 49.64705 | 8.52357 | 12771 ft | 346 kts | 185° |
| 2026-05-05 12:38 | 49.62298 | 8.52043 | 13454 ft | 349 kts | 184° |
| 2026-05-05 12:38 | 49.59868 | 8.51728 | 14069 ft | 352 kts | 184° |
| 2026-05-05 12:38 | 49.57417 | 8.51409 | 14682 ft | 354 kts | 185° |
| 2026-05-05 12:39 | 49.54985 | 8.51090 | 15290 ft | 356 kts | 185° |
| 2026-05-05 12:39 | 49.52507 | 8.50762 | 15906 ft | 359 kts | 185° |
| 2026-05-05 12:39 | 49.50011 | 8.50435 | 16503 ft | 361 kts | 185° |
| 2026-05-05 12:39 | 49.47497 | 8.50105 | 17093 ft | 363 kts | 185° |
| 2026-05-05 12:40 | 49.44968 | 8.49771 | 17682 ft | 365 kts | 185° |
| 2026-05-05 12:40 | 49.42424 | 8.49438 | 18238 ft | 368 kts | 185° |
| 2026-05-05 12:40 | 49.39865 | 8.49104 | 18725 ft | 371 kts | 185° |
| 2026-05-05 12:40 | 49.37288 | 8.48768 | 19219 ft | 373 kts | 185° |
| 2026-05-05 12:41 | 49.34700 | 8.48432 | 19715 ft | 375 kts | 185° |
| 2026-05-05 12:41 | 49.32094 | 8.48097 | 20222 ft | 377 kts | 185° |
| 2026-05-05 12:41 | 49.29475 | 8.47756 | 20715 ft | 379 kts | 185° |
| 2026-05-05 12:41 | 49.26841 | 8.47410 | 21187 ft | 381 kts | 185° |
| 2026-05-05 12:42 | 49.24196 | 8.47063 | 21642 ft | 383 kts | 185° |
| 2026-05-05 12:42 | 49.21534 | 8.46714 | 22089 ft | 385 kts | 185° |
| 2026-05-05 12:42 | 49.18857 | 8.46366 | 22548 ft | 387 kts | 184° |
| 2026-05-05 12:42 | 49.16169 | 8.46020 | 22990 ft | 389 kts | 184° |
| 2026-05-05 12:43 | 49.13462 | 8.45670 | 23414 ft | 391 kts | 184° |
| 2026-05-05 12:43 | 49.10741 | 8.45319 | 23777 ft | 393 kts | 184° |
| 2026-05-05 12:43 | 49.08004 | 8.44967 | 24136 ft | 395 kts | 184° |
| 2026-05-05 12:43 | 49.05275 | 8.44386 | 24487 ft | 397 kts | 192° |
| 2026-05-05 12:44 | 49.02577 | 8.43436 | 24838 ft | 399 kts | 192° |
| 2026-05-05 12:44 | 48.99866 | 8.42486 | 25195 ft | 400 kts | 192° |
| 2026-05-05 12:44 | 48.97146 | 8.41535 | 25526 ft | 402 kts | 192° |
| 2026-05-05 12:44 | 48.94408 | 8.40580 | 25852 ft | 404 kts | 192° |
| 2026-05-05 12:45 | 48.91661 | 8.39624 | 26189 ft | 406 kts | 192° |
| 2026-05-05 12:45 | 48.88900 | 8.38665 | 26517 ft | 408 kts | 192° |
| 2026-05-05 12:45 | 48.86126 | 8.37703 | 26842 ft | 409 kts | 191° |
| 2026-05-05 12:45 | 48.83342 | 8.36741 | 27179 ft | 411 kts | 191° |
| 2026-05-05 12:46 | 48.80542 | 8.35780 | 27517 ft | 413 kts | 191° |
| 2026-05-05 12:46 | 48.77733 | 8.34816 | 27839 ft | 414 kts | 191° |
| 2026-05-05 12:46 | 48.74918 | 8.33812 | 28128 ft | 417 kts | 192° |
| 2026-05-05 12:46 | 48.72090 | 8.32773 | 28414 ft | 419 kts | 192° |
| 2026-05-05 12:47 | 48.69259 | 8.31723 | 28695 ft | 420 kts | 192° |
| 2026-05-05 12:47 | 48.66412 | 8.30668 | 28991 ft | 421 kts | 192° |
| 2026-05-05 12:47 | 48.63552 | 8.29614 | 29250 ft | 423 kts | 192° |
| 2026-05-05 12:47 | 48.60679 | 8.28563 | 29534 ft | 425 kts | 192° |
| 2026-05-05 12:48 | 48.57832 | 8.27522 | 29800 ft | 426 kts | 192° |
| 2026-05-05 12:48 | 48.54936 | 8.26472 | 30038 ft | 428 kts | 191° |
| 2026-05-05 12:48 | 48.52031 | 8.25427 | 30360 ft | 427 kts | 191° |
| 2026-05-05 12:48 | 48.49143 | 8.24385 | 30714 ft | 425 kts | 192° |
| 2026-05-05 12:49 | 48.46273 | 8.23343 | 31054 ft | 424 kts | 192° |
| 2026-05-05 12:49 | 48.43411 | 8.22294 | 31403 ft | 422 kts | 192° |
| 2026-05-05 12:49 | 48.40563 | 8.21247 | 31741 ft | 421 kts | 192° |
| 2026-05-05 12:49 | 48.37727 | 8.20206 | 32064 ft | 419 kts | 192° |
| 2026-05-05 12:50 | 48.34896 | 8.19171 | 32399 ft | 418 kts | 192° |
| 2026-05-05 12:50 | 48.32067 | 8.18143 | 32673 ft | 418 kts | 192° |
| 2026-05-05 12:50 | 48.29240 | 8.17121 | 32979 ft | 418 kts | 192° |
| 2026-05-05 12:50 | 48.26419 | 8.16098 | 33322 ft | 416 kts | 193° |
| 2026-05-05 12:51 | 48.23704 | 8.14729 | 33619 ft | 417 kts | 201° |
| 2026-05-05 12:51 | 48.21088 | 8.12821 | 33905 ft | 417 kts | 204° |
| 2026-05-05 12:51 | 48.18494 | 8.10885 | 34159 ft | 417 kts | 204° |
| 2026-05-05 12:51 | 48.15893 | 8.08961 | 34386 ft | 417 kts | 204° |
| 2026-05-05 12:52 | 48.13290 | 8.07044 | 34601 ft | 418 kts | 205° |
| 2026-05-05 12:52 | 48.10677 | 8.05123 | 34783 ft | 419 kts | 205° |
| 2026-05-05 12:52 | 48.05455 | 8.01282 | 34891 ft | 418 kts | 205° |
| 2026-05-05 12:53 | 48.00245 | 7.97451 | 34893 ft | 417 kts | 205° |
| 2026-05-05 12:53 | 47.95034 | 7.93623 | 34895 ft | 417 kts | 205° |
| 2026-05-05 12:54 | 47.87220 | 7.87907 | 34891 ft | 417 kts | 205° |
| 2026-05-05 12:55 | 47.82007 | 7.84104 | 34891 ft | 417 kts | 205° |
| 2026-05-05 12:55 | 47.76785 | 7.80301 | 34883 ft | 417 kts | 205° |
| 2026-05-05 12:56 | 47.71560 | 7.76522 | 34886 ft | 417 kts | 205° |
| 2026-05-05 12:56 | 47.66341 | 7.72749 | 34881 ft | 417 kts | 205° |
| 2026-05-05 12:57 | 47.61126 | 7.68972 | 34875 ft | 417 kts | 205° |
| 2026-05-05 12:57 | 47.55911 | 7.65207 | 34872 ft | 417 kts | 205° |
| 2026-05-05 12:58 | 47.50692 | 7.61448 | 34884 ft | 417 kts | 206° |
| 2026-05-05 12:58 | 47.45516 | 7.57733 | 34886 ft | 416 kts | 206° |
| 2026-05-05 12:59 | 47.40306 | 7.53997 | 34893 ft | 416 kts | 205° |
| 2026-05-05 12:59 | 47.35104 | 7.50277 | 34894 ft | 415 kts | 205° |
| 2026-05-05 13:00 | 47.27311 | 7.44729 | 34909 ft | 414 kts | 206° |
| 2026-05-05 13:01 | 47.17101 | 7.36929 | 34897 ft | 414 kts | 217° |
| 2026-05-05 13:01 | 47.13112 | 7.30802 | 34900 ft | 417 kts | 230° |
| 2026-05-05 13:02 | 47.10116 | 7.25271 | 34901 ft | 416 kts | 230° |
| 2026-05-05 13:02 | 47.06503 | 7.18645 | 34901 ft | 416 kts | 230° |
| 2026-05-05 13:03 | 47.02896 | 7.12022 | 34912 ft | 416 kts | 230° |
| 2026-05-05 13:03 | 46.99283 | 7.05404 | 34917 ft | 416 kts | 230° |
| 2026-05-05 13:04 | 46.95666 | 6.98799 | 34920 ft | 415 kts | 230° |
| 2026-05-05 13:04 | 46.92048 | 6.92221 | 34950 ft | 414 kts | 228° |
| 2026-05-05 13:05 | 46.87795 | 6.86598 | 34939 ft | 412 kts | 218° |
| 2026-05-05 13:05 | 46.83347 | 6.81308 | 34928 ft | 412 kts | 218° |
| 2026-05-05 13:06 | 46.78905 | 6.76009 | 34921 ft | 412 kts | 218° |
| 2026-05-05 13:06 | 46.74466 | 6.70734 | 34922 ft | 411 kts | 219° |
| 2026-05-05 13:07 | 46.70036 | 6.65489 | 34932 ft | 409 kts | 219° |
| 2026-05-05 13:07 | 46.65617 | 6.60267 | 34932 ft | 408 kts | 219° |
| 2026-05-05 13:08 | 46.61240 | 6.55099 | 34931 ft | 407 kts | 219° |
| 2026-05-05 13:08 | 46.56837 | 6.49914 | 34926 ft | 407 kts | 219° |
| 2026-05-05 13:09 | 46.52440 | 6.44751 | 34952 ft | 407 kts | 218° |
| 2026-05-05 13:09 | 46.48037 | 6.39580 | 34926 ft | 407 kts | 218° |
| 2026-05-05 13:10 | 46.43615 | 6.34412 | 34910 ft | 408 kts | 218° |
| 2026-05-05 13:10 | 46.39199 | 6.29256 | 34904 ft | 408 kts | 218° |
| 2026-05-05 13:11 | 46.34776 | 6.24103 | 34915 ft | 408 kts | 218° |
| 2026-05-05 13:11 | 46.30350 | 6.18978 | 34915 ft | 407 kts | 218° |
| 2026-05-05 13:12 | 46.25703 | 6.14316 | 34917 ft | 407 kts | 206° |
| 2026-05-05 13:12 | 46.20260 | 6.12064 | 34904 ft | 410 kts | 191° |
| 2026-05-05 13:13 | 46.14621 | 6.10817 | 34908 ft | 410 kts | 192° |
| 2026-05-05 13:13 | 46.08983 | 6.09570 | 34909 ft | 410 kts | 192° |
| 2026-05-05 13:14 | 46.03348 | 6.08329 | 34908 ft | 410 kts | 192° |
| 2026-05-05 13:14 | 45.97710 | 6.07076 | 34903 ft | 409 kts | 192° |
| 2026-05-05 13:15 | 45.92086 | 6.05833 | 34907 ft | 408 kts | 192° |
| 2026-05-05 13:15 | 45.86472 | 6.04594 | 34912 ft | 408 kts | 192° |
| 2026-05-05 13:16 | 45.80859 | 6.03355 | 34903 ft | 408 kts | 192° |
| 2026-05-05 13:16 | 45.75291 | 6.02124 | 34910 ft | 407 kts | 193° |
| 2026-05-05 13:17 | 45.69663 | 6.00885 | 34911 ft | 406 kts | 193° |
| 2026-05-05 13:17 | 45.64111 | 5.99674 | 34911 ft | 406 kts | 193° |
| 2026-05-05 13:18 | 45.58527 | 5.98452 | 34910 ft | 406 kts | 193° |
| 2026-05-05 13:18 | 45.52946 | 5.97220 | 34913 ft | 405 kts | 193° |
| 2026-05-05 13:19 | 45.47377 | 5.96002 | 34915 ft | 404 kts | 194° |
| 2026-05-05 13:19 | 45.41866 | 5.94443 | 34901 ft | 402 kts | 197° |
| 2026-05-05 13:20 | 45.36430 | 5.92622 | 34907 ft | 401 kts | 198° |
| 2026-05-05 13:20 | 45.30966 | 5.90818 | 34885 ft | 405 kts | 197° |
| 2026-05-05 13:21 | 45.25442 | 5.89090 | 34885 ft | 408 kts | 197° |
| 2026-05-05 13:21 | 45.19886 | 5.87382 | 34885 ft | 409 kts | 197° |
| 2026-05-05 13:22 | 45.14323 | 5.85662 | 34893 ft | 409 kts | 197° |
| 2026-05-05 13:22 | 45.08750 | 5.83942 | 34891 ft | 410 kts | 197° |
| 2026-05-05 13:23 | 45.03196 | 5.82233 | 34863 ft | 411 kts | 197° |
| 2026-05-05 13:23 | 44.97593 | 5.80509 | 34889 ft | 412 kts | 198° |
| 2026-05-05 13:24 | 44.91991 | 5.78784 | 34902 ft | 411 kts | 198° |
| 2026-05-05 13:24 | 44.86400 | 5.77067 | 34908 ft | 411 kts | 198° |
| 2026-05-05 13:25 | 44.80816 | 5.75356 | 34902 ft | 410 kts | 198° |
| 2026-05-05 13:25 | 44.75241 | 5.73643 | 34913 ft | 410 kts | 198° |
| 2026-05-05 13:26 | 44.69702 | 5.71947 | 34922 ft | 410 kts | 198° |
| 2026-05-05 13:26 | 44.64132 | 5.70259 | 34939 ft | 409 kts | 197° |
| 2026-05-05 13:27 | 44.58554 | 5.68572 | 34931 ft | 410 kts | 197° |
| 2026-05-05 13:27 | 44.52983 | 5.66882 | 34924 ft | 410 kts | 197° |
| 2026-05-05 13:28 | 44.47414 | 5.65186 | 34911 ft | 410 kts | 197° |
| 2026-05-05 13:28 | 44.41845 | 5.63497 | 34913 ft | 410 kts | 198° |
| 2026-05-05 13:29 | 44.36364 | 5.61454 | 34916 ft | 404 kts | 206° |
| 2026-05-05 13:29 | 44.31132 | 5.58581 | 34920 ft | 404 kts | 206° |
| 2026-05-05 13:30 | 44.25893 | 5.55705 | 34907 ft | 405 kts | 205° |
| 2026-05-05 13:30 | 44.20651 | 5.52838 | 34921 ft | 404 kts | 206° |
| 2026-05-05 13:31 | 44.15409 | 5.49991 | 34925 ft | 405 kts | 205° |
| 2026-05-05 13:31 | 44.10154 | 5.47135 | 34934 ft | 405 kts | 205° |
| 2026-05-05 13:32 | 44.04911 | 5.44283 | 34919 ft | 404 kts | 205° |
| 2026-05-05 13:32 | 43.99660 | 5.41435 | 34918 ft | 405 kts | 205° |
| 2026-05-05 13:33 | 43.94441 | 5.38600 | 34917 ft | 405 kts | 205° |
| 2026-05-05 13:33 | 43.89193 | 5.35763 | 34902 ft | 405 kts | 205° |
| 2026-05-05 13:34 | 43.83937 | 5.32935 | 34932 ft | 405 kts | 205° |
| 2026-05-05 13:34 | 43.78682 | 5.30103 | 34934 ft | 405 kts | 205° |
| 2026-05-05 13:35 | 43.73434 | 5.27271 | 34931 ft | 405 kts | 205° |
| 2026-05-05 13:35 | 43.68181 | 5.24451 | 34906 ft | 405 kts | 205° |
| 2026-05-05 13:36 | 43.62927 | 5.21632 | 34911 ft | 405 kts | 205° |
| 2026-05-05 13:36 | 43.57673 | 5.18823 | 34935 ft | 405 kts | 205° |
| 2026-05-05 13:37 | 43.52416 | 5.16010 | 34958 ft | 405 kts | 205° |
| 2026-05-05 13:37 | 43.47156 | 5.13207 | 34949 ft | 405 kts | 205° |
| 2026-05-05 13:38 | 43.41893 | 5.10417 | 34955 ft | 405 kts | 205° |
| 2026-05-05 13:38 | 43.36902 | 5.07074 | 34957 ft | 399 kts | 217° |
| 2026-05-05 13:39 | 43.32327 | 5.02730 | 34952 ft | 399 kts | 217° |
| 2026-05-05 13:39 | 43.27752 | 4.98428 | 34947 ft | 398 kts | 217° |
| 2026-05-05 13:40 | 43.23188 | 4.94138 | 34981 ft | 397 kts | 217° |
| 2026-05-05 13:40 | 43.18628 | 4.89862 | 34967 ft | 397 kts | 217° |
| 2026-05-05 13:41 | 43.14063 | 4.85584 | 34959 ft | 397 kts | 217° |
| 2026-05-05 13:41 | 43.09506 | 4.81316 | 34943 ft | 397 kts | 217° |
| 2026-05-05 13:42 | 43.04906 | 4.77143 | 34953 ft | 397 kts | 212° |
| 2026-05-05 13:42 | 43.00066 | 4.73485 | 34954 ft | 397 kts | 212° |
| 2026-05-05 13:43 | 42.95246 | 4.69829 | 34948 ft | 396 kts | 212° |
| 2026-05-05 13:43 | 42.90424 | 4.66179 | 34943 ft | 396 kts | 213° |
| 2026-05-05 13:44 | 42.85634 | 4.62559 | 34952 ft | 395 kts | 213° |
| 2026-05-05 13:44 | 42.80824 | 4.58927 | 34952 ft | 394 kts | 213° |
| 2026-05-05 13:45 | 42.76030 | 4.55310 | 34955 ft | 394 kts | 212° |
| 2026-05-05 13:45 | 42.72040 | 4.52316 | 34943 ft | 394 kts | 212° |
| 2026-05-05 13:46 | 42.67236 | 4.48718 | 34931 ft | 394 kts | 212° |
| 2026-05-05 13:46 | 42.62435 | 4.45113 | 34928 ft | 394 kts | 212° |
| 2026-05-05 13:47 | 42.57631 | 4.41517 | 34930 ft | 394 kts | 212° |
| 2026-05-05 13:47 | 42.52823 | 4.37929 | 34900 ft | 394 kts | 212° |
| 2026-05-05 13:48 | 42.48019 | 4.34357 | 34930 ft | 393 kts | 213° |
| 2026-05-05 13:48 | 42.43226 | 4.30797 | 34940 ft | 392 kts | 213° |
| 2026-05-05 13:49 | 42.38446 | 4.27246 | 34943 ft | 392 kts | 213° |
| 2026-05-05 13:49 | 42.33665 | 4.23707 | 34943 ft | 391 kts | 213° |
| 2026-05-05 13:50 | 42.28892 | 4.20165 | 34934 ft | 391 kts | 213° |
| 2026-05-05 13:50 | 42.24117 | 4.16635 | 34953 ft | 391 kts | 213° |
| 2026-05-05 13:51 | 42.19350 | 4.13127 | 34948 ft | 390 kts | 213° |
| 2026-05-05 13:51 | 42.14581 | 4.09621 | 34947 ft | 390 kts | 213° |
| 2026-05-05 13:52 | 42.09854 | 4.06142 | 34913 ft | 390 kts | 213° |
| 2026-05-05 13:52 | 42.05091 | 4.02648 | 34920 ft | 390 kts | 213° |
| 2026-05-05 13:53 | 42.00327 | 3.99168 | 34931 ft | 389 kts | 213° |
| 2026-05-05 13:53 | 41.95567 | 3.95693 | 34923 ft | 389 kts | 213° |
| 2026-05-05 13:54 | 41.90535 | 3.92933 | 34883 ft | 400 kts | 197° |
| 2026-05-05 13:54 | 41.85028 | 3.91657 | 34894 ft | 401 kts | 197° |
| 2026-05-05 13:55 | 41.79523 | 3.90389 | 34904 ft | 402 kts | 197° |
| 2026-05-05 13:55 | 41.74009 | 3.89116 | 34910 ft | 402 kts | 197° |
| 2026-05-05 13:56 | 41.68497 | 3.87849 | 34889 ft | 402 kts | 197° |
| 2026-05-05 13:56 | 41.62984 | 3.86580 | 34907 ft | 402 kts | 197° |
| 2026-05-05 13:57 | 41.57459 | 3.85316 | 34908 ft | 402 kts | 197° |
| 2026-05-05 13:57 | 41.51941 | 3.84049 | 34916 ft | 402 kts | 197° |
| 2026-05-05 13:58 | 41.46420 | 3.82779 | 34885 ft | 402 kts | 196° |
| 2026-05-05 13:58 | 41.40939 | 3.81527 | 34897 ft | 402 kts | 196° |
| 2026-05-05 13:59 | 41.32659 | 3.79635 | 34930 ft | 403 kts | 196° |
| 2026-05-05 14:00 | 41.24361 | 3.77754 | 34909 ft | 403 kts | 196° |
| 2026-05-05 14:00 | 41.18835 | 3.76498 | 34918 ft | 403 kts | 196° |
| 2026-05-05 14:01 | 41.13452 | 3.74744 | 34920 ft | 393 kts | 206° |
| 2026-05-05 14:01 | 41.10942 | 3.73444 | 34922 ft | 382 kts | 206° |
| 2026-05-05 14:01 | 41.08482 | 3.72178 | 34921 ft | 378 kts | 206° |
| 2026-05-05 14:02 | 41.03599 | 3.69661 | 34922 ft | 376 kts | 206° |
| 2026-05-05 14:02 | 40.98756 | 3.67161 | 34922 ft | 376 kts | 206° |
| 2026-05-05 14:03 | 40.93872 | 3.64651 | 34922 ft | 376 kts | 206° |
| 2026-05-05 14:03 | 40.88986 | 3.62147 | 34922 ft | 376 kts | 206° |
| 2026-05-05 14:04 | 40.86540 | 3.60897 | 34739 ft | 377 kts | 206° |
| 2026-05-05 14:04 | 40.84091 | 3.59648 | 34219 ft | 377 kts | 206° |
| 2026-05-05 14:04 | 40.81640 | 3.58396 | 33392 ft | 379 kts | 206° |
| 2026-05-05 14:04 | 40.79181 | 3.57136 | 32606 ft | 379 kts | 206° |
| 2026-05-05 14:05 | 40.76733 | 3.55883 | 32043 ft | 375 kts | 206° |
| 2026-05-05 14:05 | 40.74323 | 3.54658 | 31573 ft | 368 kts | 206° |
| 2026-05-05 14:05 | 40.71943 | 3.53451 | 31080 ft | 364 kts | 206° |
| 2026-05-05 14:05 | 40.69593 | 3.52256 | 30598 ft | 359 kts | 207° |
| 2026-05-05 14:06 | 40.67280 | 3.51074 | 30119 ft | 355 kts | 207° |
| 2026-05-05 14:06 | 40.64992 | 3.49906 | 29600 ft | 351 kts | 207° |
| 2026-05-05 14:06 | 40.62733 | 3.48758 | 29133 ft | 345 kts | 207° |
| 2026-05-05 14:06 | 40.60509 | 3.47628 | 28684 ft | 340 kts | 207° |
| 2026-05-05 14:07 | 40.58321 | 3.46521 | 28243 ft | 334 kts | 207° |
| 2026-05-05 14:07 | 40.56164 | 3.45431 | 27799 ft | 331 kts | 207° |
| 2026-05-05 14:07 | 40.54025 | 3.44349 | 27374 ft | 329 kts | 207° |
| 2026-05-05 14:07 | 40.51899 | 3.43271 | 26946 ft | 327 kts | 207° |
| 2026-05-05 14:08 | 40.49798 | 3.42205 | 26524 ft | 326 kts | 207° |
| 2026-05-05 14:08 | 40.47688 | 3.41136 | 26106 ft | 325 kts | 207° |
| 2026-05-05 14:08 | 40.45575 | 3.40098 | 25689 ft | 325 kts | 203° |
| 2026-05-05 14:08 | 40.43344 | 3.39470 | 25234 ft | 332 kts | 193° |
| 2026-05-05 14:09 | 40.41011 | 3.39403 | 24728 ft | 338 kts | 186° |
| 2026-05-05 14:09 | 40.38660 | 3.39544 | 24268 ft | 338 kts | 186° |
| 2026-05-05 14:09 | 40.36311 | 3.39681 | 23798 ft | 337 kts | 186° |
| 2026-05-05 14:09 | 40.33970 | 3.39815 | 23307 ft | 336 kts | 186° |
| 2026-05-05 14:10 | 40.31639 | 3.39947 | 22827 ft | 334 kts | 186° |
| 2026-05-05 14:10 | 40.29322 | 3.40080 | 22380 ft | 333 kts | 185° |
| 2026-05-05 14:10 | 40.27016 | 3.40212 | 21934 ft | 331 kts | 185° |
| 2026-05-05 14:10 | 40.24719 | 3.40343 | 21490 ft | 329 kts | 185° |
| 2026-05-05 14:11 | 40.22435 | 3.40475 | 21030 ft | 328 kts | 185° |
| 2026-05-05 14:11 | 40.20158 | 3.40606 | 20555 ft | 327 kts | 185° |
| 2026-05-05 14:11 | 40.17890 | 3.40734 | 20111 ft | 325 kts | 185° |
| 2026-05-05 14:11 | 40.15629 | 3.40857 | 19650 ft | 325 kts | 185° |
| 2026-05-05 14:12 | 40.13395 | 3.40979 | 19186 ft | 325 kts | 184° |
| 2026-05-05 14:12 | 40.11131 | 3.41106 | 18709 ft | 326 kts | 184° |
| 2026-05-05 14:12 | 40.08856 | 3.41233 | 18080 ft | 327 kts | 184° |
| 2026-05-05 14:12 | 40.06594 | 3.41361 | 17273 ft | 324 kts | 184° |
| 2026-05-05 14:13 | 40.04347 | 3.41490 | 16499 ft | 321 kts | 183° |
| 2026-05-05 14:13 | 40.02124 | 3.41620 | 15738 ft | 319 kts | 182° |
| 2026-05-05 14:13 | 39.99916 | 3.41750 | 14994 ft | 316 kts | 182° |
| 2026-05-05 14:13 | 39.97720 | 3.41877 | 14258 ft | 314 kts | 182° |
| 2026-05-05 14:14 | 39.95543 | 3.42002 | 13530 ft | 312 kts | 182° |
| 2026-05-05 14:14 | 39.93382 | 3.42126 | 12740 ft | 310 kts | 181° |
| 2026-05-05 14:14 | 39.91237 | 3.42248 | 11973 ft | 308 kts | 181° |
| 2026-05-05 14:14 | 39.89117 | 3.42238 | 11219 ft | 301 kts | 192° |
| 2026-05-05 14:15 | 39.87152 | 3.41407 | 10492 ft | 294 kts | 211° |
| 2026-05-05 14:15 | 39.85600 | 3.39779 | 9780 ft | 290 kts | 231° |
| 2026-05-05 14:15 | 39.84496 | 3.37603 | 9005 ft | 287 kts | 239° |
| 2026-05-05 14:15 | 39.83466 | 3.35383 | 8219 ft | 286 kts | 239° |
| 2026-05-05 14:16 | 39.82437 | 3.33182 | 7467 ft | 284 kts | 238° |
| 2026-05-05 14:16 | 39.81414 | 3.31002 | 6832 ft | 279 kts | 238° |
| 2026-05-05 14:16 | 39.80417 | 3.28877 | 6314 ft | 271 kts | 239° |
| 2026-05-05 14:16 | 39.79454 | 3.26829 | 5856 ft | 261 kts | 238° |
| 2026-05-05 14:17 | 39.78524 | 3.24857 | 5395 ft | 251 kts | 238° |
| 2026-05-05 14:17 | 39.77630 | 3.22963 | 5040 ft | 240 kts | 238° |
| 2026-05-05 14:17 | 39.76778 | 3.21157 | 4694 ft | 229 kts | 238° |
| 2026-05-05 14:17 | 39.75966 | 3.19435 | 4418 ft | 217 kts | 239° |
| 2026-05-05 14:18 | 39.75200 | 3.17815 | 4217 ft | 204 kts | 239° |
| 2026-05-05 14:18 | 39.74469 | 3.16266 | 4006 ft | 199 kts | 239° |
| 2026-05-05 14:18 | 39.73742 | 3.14725 | 3810 ft | 200 kts | 239° |
| 2026-05-05 14:18 | 39.73017 | 3.13188 | 3611 ft | 199 kts | 239° |
| 2026-05-05 14:19 | 39.72292 | 3.11653 | 3430 ft | 197 kts | 238° |
| 2026-05-05 14:19 | 39.71582 | 3.10149 | 3302 ft | 196 kts | 238° |
| 2026-05-05 14:19 | 39.70866 | 3.08635 | 3179 ft | 196 kts | 238° |
| 2026-05-05 14:19 | 39.70157 | 3.07137 | 3065 ft | 194 kts | 238° |
| 2026-05-05 14:20 | 39.69432 | 3.05658 | 2986 ft | 195 kts | 237° |
| 2026-05-05 14:20 | 39.68707 | 3.04159 | 2952 ft | 199 kts | 238° |
| 2026-05-05 14:20 | 39.67984 | 3.02629 | 2959 ft | 197 kts | 238° |
| 2026-05-05 14:20 | 39.67293 | 3.01156 | 2975 ft | 185 kts | 238° |
| 2026-05-05 14:21 | 39.66629 | 2.99740 | 2961 ft | 181 kts | 238° |
| 2026-05-05 14:21 | 39.65979 | 2.98353 | 2961 ft | 179 kts | 238° |
| 2026-05-05 14:21 | 39.65333 | 2.96976 | 2958 ft | 177 kts | 238° |
| 2026-05-05 14:21 | 39.64695 | 2.95616 | 2944 ft | 173 kts | 238° |
| 2026-05-05 14:22 | 39.64096 | 2.94339 | 2961 ft | 164 kts | 238° |
| 2026-05-05 14:22 | 39.63518 | 2.93110 | 2906 ft | 156 kts | 238° |
| 2026-05-05 14:22 | 39.62954 | 2.91910 | 2763 ft | 156 kts | 238° |
| 2026-05-05 14:22 | 39.62397 | 2.90723 | 2575 ft | 152 kts | 237° |
| 2026-05-05 14:23 | 39.61875 | 2.89610 | 2408 ft | 136 kts | 236° |
| 2026-05-05 14:23 | 39.61390 | 2.88582 | 2206 ft | 134 kts | 236° |
| 2026-05-05 14:23 | 39.60897 | 2.87562 | 1990 ft | 133 kts | 236° |
| 2026-05-05 14:23 | 39.60403 | 2.86551 | 1807 ft | 132 kts | 236° |
| 2026-05-05 14:24 | 39.59923 | 2.85524 | 1666 ft | 135 kts | 237° |
| 2026-05-05 14:24 | 39.59450 | 2.84481 | 1483 ft | 135 kts | 237° |
| 2026-05-05 14:24 | 39.58975 | 2.83429 | 1352 ft | 134 kts | 238° |
| 2026-05-05 14:24 | 39.58488 | 2.82389 | 1171 ft | 136 kts | 237° |
| 2026-05-05 14:25 | 39.58002 | 2.81349 | 984 ft | 134 kts | 237° |
| 2026-05-05 14:25 | 39.57503 | 2.80327 | 785 ft | 135 kts | 237° |
| 2026-05-05 14:25 | 39.57022 | 2.79288 | 594 ft | 134 kts | 237° |
| 2026-05-05 14:25 | 39.56541 | 2.78257 | 402 ft | 134 kts | 237° |
| 2026-05-05 14:26 | 39.56061 | 2.77238 | 241 ft | 132 kts | 236° |
| 2026-05-05 14:26 | 39.55580 | 2.76231 | 67 ft | 131 kts | 235° |
| 2026-05-05 14:26 | 39.55130 | 2.75292 | 30 ft | 107 kts | 238° |
| 2026-05-05 14:26 | 39.54865 | 2.74722 | 32 ft | 43 kts | 241° |
| 2026-05-05 14:27 | 39.54809 | 2.74457 | 34 ft | 24 kts | 264° |
| 2026-05-05 14:27 | 39.54803 | 2.74265 | 35 ft | 19 kts | 269° |
| 2026-05-05 14:27 | 39.54838 | 2.74122 | 36 ft | 17 kts | 313° |
| 2026-05-05 14:27 | 39.54926 | 2.74047 | 34 ft | 13 kts | 329° |
| 2026-05-05 14:28 | 39.55000 | 2.73990 | 35 ft | 12 kts | 329° |
| 2026-05-05 14:28 | 39.55065 | 2.73939 | 36 ft | 10 kts | 328° |
| 2026-05-05 14:28 | 39.55134 | 2.73884 | 35 ft | 13 kts | 328° |
| 2026-05-05 14:28 | 39.55175 | 2.73803 | 36 ft | 11 kts | 255° |
| 2026-05-05 14:29 | 39.55174 | 2.73698 | 36 ft | 13 kts | 262° |
| 2026-05-05 14:29 | 39.55212 | 2.73612 | 34 ft | 12 kts | 332° |
| 2026-05-05 14:29 | 39.55276 | 2.73563 | 36 ft | 10 kts | 328° |
| 2026-05-05 14:29 | 39.55335 | 2.73515 | 35 ft | 10 kts | 327° |
| 2026-05-05 14:30 | 39.55408 | 2.73454 | 32 ft | 13 kts | 324° |
| 2026-05-05 14:30 | 39.55398 | 2.73349 | 31 ft | 14 kts | 236° |
| 2026-05-05 14:30 | 39.55323 | 2.73308 | 32 ft | 10 kts | 197° |
| 2026-05-05 14:30 | 39.55286 | 2.73294 | 33 ft | 0 kts | 196° |